sensor_id;sensor_type;location;lat;lon;timestamp;P1;durP1;ratioP1;P2;durP2;ratioP2
14611;SDS011;7392;52.078;11.650;2022-08-04T00:00:04;2.22;;;1.15;;
14611;SDS011;7392;52.078;11.650;2022-08-04T00:02:41;2.20;;;1.40;;
14611;SDS011;7392;52.078;11.650;2022-08-04T00:05:26;1.98;;;1.27;;
14611;SDS011;7392;52.078;11.650;2022-08-04T00:08:00;1.60;;;1.30;;
14611;SDS011;7392;52.078;11.650;2022-08-04T00:10:34;1.95;;;1.55;;
14611;SDS011;7392;52.078;11.650;2022-08-04T00:13:05;1.80;;;1.17;;
14611;SDS011;7392;52.078;11.650;2022-08-04T00:15:34;1.42;;;1.33;;
14611;SDS011;7392;52.078;11.650;2022-08-04T00:18:04;2.00;;;1.35;;
14611;SDS011;7392;52.078;11.650;2022-08-04T00:20:37;2.17;;;1.40;;
14611;SDS011;7392;52.078;11.650;2022-08-04T00:23:06;2.20;;;1.50;;
14611;SDS011;7392;52.078;11.650;2022-08-04T00:25:39;1.33;;;1.23;;
14611;SDS011;7392;52.078;11.650;2022-08-04T00:28:07;1.90;;;1.60;;
14611;SDS011;7392;52.078;11.650;2022-08-04T00:30:35;1.33;;;1.13;;
14611;SDS011;7392;52.078;11.650;2022-08-04T00:33:04;1.60;;;1.33;;
14611;SDS011;7392;52.078;11.650;2022-08-04T00:35:33;1.63;;;1.10;;
14611;SDS011;7392;52.078;11.650;2022-08-04T00:38:02;1.65;;;1.40;;
14611;SDS011;7392;52.078;11.650;2022-08-04T00:40:32;1.85;;;1.30;;
14611;SDS011;7392;52.078;11.650;2022-08-04T00:43:11;1.65;;;1.20;;
14611;SDS011;7392;52.078;11.650;2022-08-04T00:45:57;1.30;;;1.20;;
14611;SDS011;7392;52.078;11.650;2022-08-04T00:48:50;1.48;;;1.30;;
14611;SDS011;7392;52.078;11.650;2022-08-04T00:51:28;1.70;;;1.10;;
14611;SDS011;7392;52.078;11.650;2022-08-04T00:54:05;1.20;;;1.00;;
14611;SDS011;7392;52.078;11.650;2022-08-04T00:56:46;1.88;;;1.10;;
14611;SDS011;7392;52.078;11.650;2022-08-04T00:59:30;1.20;;;1.10;;
14611;SDS011;7392;52.078;11.650;2022-08-04T01:02:14;1.05;;;0.95;;
14611;SDS011;7392;52.078;11.650;2022-08-04T01:04:56;1.40;;;1.10;;
14611;SDS011;7392;52.078;11.650;2022-08-04T01:07:34;0.70;;;0.70;;
14611;SDS011;7392;52.078;11.650;2022-08-04T01:10:16;0.90;;;0.90;;
14611;SDS011;7392;52.078;11.650;2022-08-04T01:13:00;0.93;;;0.80;;
14611;SDS011;7392;52.078;11.650;2022-08-04T01:15:48;0.80;;;0.80;;
14611;SDS011;7392;52.078;11.650;2022-08-04T01:18:29;1.15;;;1.05;;
14611;SDS011;7392;52.078;11.650;2022-08-04T01:21:04;1.50;;;1.30;;
14611;SDS011;7392;52.078;11.650;2022-08-04T01:23:49;2.20;;;1.38;;
14611;SDS011;7392;52.078;11.650;2022-08-04T01:26:37;1.40;;;1.00;;
14611;SDS011;7392;52.078;11.650;2022-08-04T01:29:27;1.73;;;1.40;;
14611;SDS011;7392;52.078;11.650;2022-08-04T01:32:12;1.40;;;1.23;;
14611;SDS011;7392;52.078;11.650;2022-08-04T01:34:55;1.25;;;1.10;;
14611;SDS011;7392;52.078;11.650;2022-08-04T01:37:30;1.52;;;1.00;;
14611;SDS011;7392;52.078;11.650;2022-08-04T01:40:08;1.15;;;1.05;;
14611;SDS011;7392;52.078;11.650;2022-08-04T01:42:41;1.40;;;1.05;;
14611;SDS011;7392;52.078;11.650;2022-08-04T01:45:12;1.45;;;1.25;;
14611;SDS011;7392;52.078;11.650;2022-08-04T01:47:47;1.95;;;1.27;;
14611;SDS011;7392;52.078;11.650;2022-08-04T01:50:16;1.67;;;1.17;;
14611;SDS011;7392;52.078;11.650;2022-08-04T01:52:45;1.20;;;1.10;;
14611;SDS011;7392;52.078;11.650;2022-08-04T01:55:16;2.15;;;1.15;;
14611;SDS011;7392;52.078;11.650;2022-08-04T01:57:46;1.20;;;1.10;;
14611;SDS011;7392;52.078;11.650;2022-08-04T02:00:18;1.00;;;0.90;;
14611;SDS011;7392;52.078;11.650;2022-08-04T02:02:50;1.10;;;1.00;;
14611;SDS011;7392;52.078;11.650;2022-08-04T02:05:18;1.35;;;1.25;;
14611;SDS011;7392;52.078;11.650;2022-08-04T02:07:56;1.25;;;1.10;;
14611;SDS011;7392;52.078;11.650;2022-08-04T02:10:34;1.27;;;1.13;;
14611;SDS011;7392;52.078;11.650;2022-08-04T02:13:17;1.10;;;1.00;;
14611;SDS011;7392;52.078;11.650;2022-08-04T02:15:57;1.13;;;1.02;;
14611;SDS011;7392;52.078;11.650;2022-08-04T02:18:30;2.30;;;1.20;;
14611;SDS011;7392;52.078;11.650;2022-08-04T02:21:01;1.30;;;0.95;;
14611;SDS011;7392;52.078;11.650;2022-08-04T02:23:33;1.75;;;1.17;;
14611;SDS011;7392;52.078;11.650;2022-08-04T02:26:04;1.80;;;1.45;;
14611;SDS011;7392;52.078;11.650;2022-08-04T02:28:50;2.05;;;1.13;;
14611;SDS011;7392;52.078;11.650;2022-08-04T02:31:30;1.27;;;1.17;;
14611;SDS011;7392;52.078;11.650;2022-08-04T02:34:05;1.35;;;1.05;;
14611;SDS011;7392;52.078;11.650;2022-08-04T02:36:36;1.80;;;1.20;;
14611;SDS011;7392;52.078;11.650;2022-08-04T02:39:05;1.30;;;1.10;;
14611;SDS011;7392;52.078;11.650;2022-08-04T02:41:35;1.10;;;1.00;;
14611;SDS011;7392;52.078;11.650;2022-08-04T02:44:06;1.20;;;1.10;;
14611;SDS011;7392;52.078;11.650;2022-08-04T02:46:37;1.38;;;1.23;;
14611;SDS011;7392;52.078;11.650;2022-08-04T02:49:06;1.60;;;1.20;;
14611;SDS011;7392;52.078;11.650;2022-08-04T02:51:36;1.98;;;1.60;;
14611;SDS011;7392;52.078;11.650;2022-08-04T02:54:06;1.35;;;1.25;;
14611;SDS011;7392;52.078;11.650;2022-08-04T02:56:36;2.38;;;1.17;;
14611;SDS011;7392;52.078;11.650;2022-08-04T02:59:06;1.50;;;1.23;;
14611;SDS011;7392;52.078;11.650;2022-08-04T03:01:37;2.08;;;1.38;;
14611;SDS011;7392;52.078;11.650;2022-08-04T03:04:31;2.08;;;1.30;;
14611;SDS011;7392;52.078;11.650;2022-08-04T03:07:18;2.83;;;1.65;;
14611;SDS011;7392;52.078;11.650;2022-08-04T03:10:08;2.33;;;1.63;;
14611;SDS011;7392;52.078;11.650;2022-08-04T03:13:06;5.07;;;2.70;;
14611;SDS011;7392;52.078;11.650;2022-08-04T03:16:05;4.82;;;2.22;;
14611;SDS011;7392;52.078;11.650;2022-08-04T03:19:03;3.90;;;2.75;;
14611;SDS011;7392;52.078;11.650;2022-08-04T03:22:03;4.35;;;3.13;;
14611;SDS011;7392;52.078;11.650;2022-08-04T03:28:02;3.83;;;2.50;;
14611;SDS011;7392;52.078;11.650;2022-08-04T03:31:00;3.90;;;2.00;;
14611;SDS011;7392;52.078;11.650;2022-08-04T03:34:02;2.70;;;1.95;;
14611;SDS011;7392;52.078;11.650;2022-08-04T03:37:01;1.80;;;1.60;;
14611;SDS011;7392;52.078;11.650;2022-08-04T03:39:56;1.70;;;1.43;;
14611;SDS011;7392;52.078;11.650;2022-08-04T03:42:50;2.03;;;1.63;;
14611;SDS011;7392;52.078;11.650;2022-08-04T03:46:02;1.63;;;1.48;;
14611;SDS011;7392;52.078;11.650;2022-08-04T03:49:04;1.35;;;1.25;;
14611;SDS011;7392;52.078;11.650;2022-08-04T03:51:53;1.73;;;1.50;;
14611;SDS011;7392;52.078;11.650;2022-08-04T03:55:12;1.55;;;1.30;;
14611;SDS011;7392;52.078;11.650;2022-08-04T03:58:04;1.40;;;1.20;;
14611;SDS011;7392;52.078;11.650;2022-08-04T04:01:03;1.55;;;1.20;;
14611;SDS011;7392;52.078;11.650;2022-08-04T04:03:41;1.48;;;1.20;;
14611;SDS011;7392;52.078;11.650;2022-08-04T04:06:42;1.10;;;1.00;;
14611;SDS011;7392;52.078;11.650;2022-08-04T04:12:38;1.73;;;1.33;;
14611;SDS011;7392;52.078;11.650;2022-08-04T04:15:38;1.38;;;1.10;;
14611;SDS011;7392;52.078;11.650;2022-08-04T04:18:38;1.45;;;1.20;;
14611;SDS011;7392;52.078;11.650;2022-08-04T04:21:28;1.20;;;1.10;;
14611;SDS011;7392;52.078;11.650;2022-08-04T04:27:23;1.10;;;1.00;;
14611;SDS011;7392;52.078;11.650;2022-08-04T04:30:02;0.93;;;0.77;;
14611;SDS011;7392;52.078;11.650;2022-08-04T04:32:44;1.25;;;1.15;;
14611;SDS011;7392;52.078;11.650;2022-08-04T04:35:28;0.85;;;0.85;;
14611;SDS011;7392;52.078;11.650;2022-08-04T04:38:15;0.95;;;0.80;;
14611;SDS011;7392;52.078;11.650;2022-08-04T04:40:58;1.05;;;1.00;;
14611;SDS011;7392;52.078;11.650;2022-08-04T04:43:40;1.03;;;0.83;;
14611;SDS011;7392;52.078;11.650;2022-08-04T04:46:25;0.77;;;0.77;;
14611;SDS011;7392;52.078;11.650;2022-08-04T04:49:03;0.97;;;0.83;;
14611;SDS011;7392;52.078;11.650;2022-08-04T04:51:41;1.30;;;1.10;;
14611;SDS011;7392;52.078;11.650;2022-08-04T04:54:20;1.23;;;1.13;;
14611;SDS011;7392;52.078;11.650;2022-08-04T04:56:58;1.10;;;1.00;;
14611;SDS011;7392;52.078;11.650;2022-08-04T04:59:31;1.20;;;1.00;;
14611;SDS011;7392;52.078;11.650;2022-08-04T05:02:06;0.95;;;0.93;;
14611;SDS011;7392;52.078;11.650;2022-08-04T05:05:05;0.82;;;0.80;;
14611;SDS011;7392;52.078;11.650;2022-08-04T05:07:48;0.90;;;0.80;;
14611;SDS011;7392;52.078;11.650;2022-08-04T05:11:03;1.00;;;0.93;;
14611;SDS011;7392;52.078;11.650;2022-08-04T05:13:52;1.20;;;1.10;;
14611;SDS011;7392;52.078;11.650;2022-08-04T05:16:45;1.80;;;0.90;;
14611;SDS011;7392;52.078;11.650;2022-08-04T05:19:19;1.40;;;1.20;;
14611;SDS011;7392;52.078;11.650;2022-08-04T05:21:55;1.10;;;1.00;;
14611;SDS011;7392;52.078;11.650;2022-08-04T05:24:27;1.10;;;1.00;;
14611;SDS011;7392;52.078;11.650;2022-08-04T05:27:02;1.07;;;0.97;;
14611;SDS011;7392;52.078;11.650;2022-08-04T05:29:36;0.77;;;0.77;;
14611;SDS011;7392;52.078;11.650;2022-08-04T05:32:09;0.80;;;0.80;;
14611;SDS011;7392;52.078;11.650;2022-08-04T05:34:41;0.77;;;0.77;;
14611;SDS011;7392;52.078;11.650;2022-08-04T05:37:14;0.70;;;0.70;;
14611;SDS011;7392;52.078;11.650;2022-08-04T05:39:45;0.70;;;0.70;;
14611;SDS011;7392;52.078;11.650;2022-08-04T05:42:20;0.80;;;0.60;;
14611;SDS011;7392;52.078;11.650;2022-08-04T05:44:49;0.70;;;0.70;;
14611;SDS011;7392;52.078;11.650;2022-08-04T05:47:18;0.60;;;0.60;;
14611;SDS011;7392;52.078;11.650;2022-08-04T05:49:48;1.13;;;0.70;;
14611;SDS011;7392;52.078;11.650;2022-08-04T05:52:28;0.60;;;0.60;;
14611;SDS011;7392;52.078;11.650;2022-08-04T05:54:57;0.60;;;0.60;;
14611;SDS011;7392;52.078;11.650;2022-08-04T05:57:28;1.67;;;1.40;;
14611;SDS011;7392;52.078;11.650;2022-08-04T05:59:59;1.65;;;1.55;;
14611;SDS011;7392;52.078;11.650;2022-08-04T06:02:49;1.38;;;1.27;;
14611;SDS011;7392;52.078;11.650;2022-08-04T06:05:19;1.38;;;1.27;;
14611;SDS011;7392;52.078;11.650;2022-08-04T06:07:47;1.77;;;1.35;;
14611;SDS011;7392;52.078;11.650;2022-08-04T06:10:36;1.48;;;1.38;;
14611;SDS011;7392;52.078;11.650;2022-08-04T06:13:09;1.67;;;1.58;;
14611;SDS011;7392;52.078;11.650;2022-08-04T06:15:59;1.50;;;1.40;;
14611;SDS011;7392;52.078;11.650;2022-08-04T06:18:29;1.45;;;1.25;;
14611;SDS011;7392;52.078;11.650;2022-08-04T06:21:21;1.42;;;1.33;;
14611;SDS011;7392;52.078;11.650;2022-08-04T06:23:50;1.30;;;1.20;;
14611;SDS011;7392;52.078;11.650;2022-08-04T06:26:29;1.40;;;1.13;;
14611;SDS011;7392;52.078;11.650;2022-08-04T06:29:02;1.40;;;1.05;;
14611;SDS011;7392;52.078;11.650;2022-08-04T06:31:35;1.08;;;1.02;;
14611;SDS011;7392;52.078;11.650;2022-08-04T06:34:32;1.40;;;1.30;;
14611;SDS011;7392;52.078;11.650;2022-08-04T06:37:01;1.30;;;1.20;;
14611;SDS011;7392;52.078;11.650;2022-08-04T06:39:30;1.58;;;1.45;;
14611;SDS011;7392;52.078;11.650;2022-08-04T06:42:00;1.90;;;1.30;;
14611;SDS011;7392;52.078;11.650;2022-08-04T06:44:51;1.25;;;1.15;;
14611;SDS011;7392;52.078;11.650;2022-08-04T06:47:22;1.35;;;1.23;;
14611;SDS011;7392;52.078;11.650;2022-08-04T06:49:51;1.33;;;1.17;;
14611;SDS011;7392;52.078;11.650;2022-08-04T06:52:42;1.30;;;1.20;;
14611;SDS011;7392;52.078;11.650;2022-08-04T06:55:12;1.45;;;1.35;;
14611;SDS011;7392;52.078;11.650;2022-08-04T06:57:40;1.63;;;1.42;;
14611;SDS011;7392;52.078;11.650;2022-08-04T07:00:11;1.20;;;1.10;;
14611;SDS011;7392;52.078;11.650;2022-08-04T07:02:41;1.63;;;1.20;;
14611;SDS011;7392;52.078;11.650;2022-08-04T07:05:11;1.33;;;1.20;;
14611;SDS011;7392;52.078;11.650;2022-08-04T07:07:40;1.60;;;1.27;;
14611;SDS011;7392;52.078;11.650;2022-08-04T07:10:23;1.27;;;1.17;;
14611;SDS011;7392;52.078;11.650;2022-08-04T07:12:54;2.38;;;1.23;;
14611;SDS011;7392;52.078;11.650;2022-08-04T07:15:24;1.52;;;1.42;;
14611;SDS011;7392;52.078;11.650;2022-08-04T07:17:53;1.23;;;1.10;;
14611;SDS011;7392;52.078;11.650;2022-08-04T07:20:26;1.35;;;1.25;;
14611;SDS011;7392;52.078;11.650;2022-08-04T07:23:01;1.30;;;1.05;;
14611;SDS011;7392;52.078;11.650;2022-08-04T07:28:29;1.30;;;1.20;;
14611;SDS011;7392;52.078;11.650;2022-08-04T07:30:58;1.88;;;1.48;;
14611;SDS011;7392;52.078;11.650;2022-08-04T07:33:28;1.30;;;1.20;;
14611;SDS011;7392;52.078;11.650;2022-08-04T07:35:57;1.50;;;1.20;;
14611;SDS011;7392;52.078;11.650;2022-08-04T07:38:37;2.35;;;1.38;;
14611;SDS011;7392;52.078;11.650;2022-08-04T07:41:19;1.52;;;1.42;;
14611;SDS011;7392;52.078;11.650;2022-08-04T07:44:04;1.75;;;1.33;;
14611;SDS011;7392;52.078;11.650;2022-08-04T07:46:35;1.83;;;1.63;;
14611;SDS011;7392;52.078;11.650;2022-08-04T07:49:04;1.58;;;1.48;;
14611;SDS011;7392;52.078;11.650;2022-08-04T07:51:33;1.40;;;1.30;;
14611;SDS011;7392;52.078;11.650;2022-08-04T07:54:04;1.30;;;1.20;;
14611;SDS011;7392;52.078;11.650;2022-08-04T07:56:35;3.70;;;1.80;;
14611;SDS011;7392;52.078;11.650;2022-08-04T07:59:04;1.80;;;1.55;;
14611;SDS011;7392;52.078;11.650;2022-08-04T08:01:35;1.50;;;1.40;;
14611;SDS011;7392;52.078;11.650;2022-08-04T08:04:04;1.70;;;1.60;;
14611;SDS011;7392;52.078;11.650;2022-08-04T08:06:34;1.45;;;1.20;;
14611;SDS011;7392;52.078;11.650;2022-08-04T08:09:09;3.10;;;1.50;;
14611;SDS011;7392;52.078;11.650;2022-08-04T08:11:40;1.40;;;1.20;;
14611;SDS011;7392;52.078;11.650;2022-08-04T08:14:29;1.70;;;1.50;;
14611;SDS011;7392;52.078;11.650;2022-08-04T08:17:00;2.42;;;1.70;;
14611;SDS011;7392;52.078;11.650;2022-08-04T08:19:29;1.75;;;1.50;;
14611;SDS011;7392;52.078;11.650;2022-08-04T08:21:58;1.50;;;1.40;;
14611;SDS011;7392;52.078;11.650;2022-08-04T08:24:27;1.50;;;1.40;;
14611;SDS011;7392;52.078;11.650;2022-08-04T08:26:57;3.40;;;1.60;;
14611;SDS011;7392;52.078;11.650;2022-08-04T08:29:26;3.35;;;1.90;;
14611;SDS011;7392;52.078;11.650;2022-08-04T08:31:56;2.17;;;1.95;;
14611;SDS011;7392;52.078;11.650;2022-08-04T08:34:34;2.13;;;1.60;;
14611;SDS011;7392;52.078;11.650;2022-08-04T08:37:08;1.95;;;1.75;;
14611;SDS011;7392;52.078;11.650;2022-08-04T08:39:41;3.47;;;1.60;;
14611;SDS011;7392;52.078;11.650;2022-08-04T08:42:30;1.92;;;1.70;;
14611;SDS011;7392;52.078;11.650;2022-08-04T08:45:23;2.97;;;1.80;;
14611;SDS011;7392;52.078;11.650;2022-08-04T08:48:19;2.13;;;1.60;;
14611;SDS011;7392;52.078;11.650;2022-08-04T08:51:37;2.25;;;1.63;;
14611;SDS011;7392;52.078;11.650;2022-08-04T08:54:23;1.60;;;1.48;;
14611;SDS011;7392;52.078;11.650;2022-08-04T08:57:16;1.60;;;1.50;;
14611;SDS011;7392;52.078;11.650;2022-08-04T08:59:56;2.17;;;1.70;;
14611;SDS011;7392;52.078;11.650;2022-08-04T09:05:39;2.55;;;1.70;;
14611;SDS011;7392;52.078;11.650;2022-08-04T09:08:25;2.70;;;1.52;;
14611;SDS011;7392;52.078;11.650;2022-08-04T09:11:08;1.60;;;1.50;;
14611;SDS011;7392;52.078;11.650;2022-08-04T09:13:40;2.17;;;1.73;;
14611;SDS011;7392;52.078;11.650;2022-08-04T09:16:13;3.60;;;1.60;;
14611;SDS011;7392;52.078;11.650;2022-08-04T09:18:46;1.45;;;1.33;;
14611;SDS011;7392;52.078;11.650;2022-08-04T09:21:23;1.90;;;1.55;;
14611;SDS011;7392;52.078;11.650;2022-08-04T09:24:02;1.88;;;1.60;;
14611;SDS011;7392;52.078;11.650;2022-08-04T09:26:57;2.60;;;1.70;;
14611;SDS011;7392;52.078;11.650;2022-08-04T09:29:29;2.97;;;1.80;;
14611;SDS011;7392;52.078;11.650;2022-08-04T09:32:05;2.20;;;2.00;;
14611;SDS011;7392;52.078;11.650;2022-08-04T09:34:39;2.47;;;1.70;;
14611;SDS011;7392;52.078;11.650;2022-08-04T09:37:35;3.45;;;1.85;;
14611;SDS011;7392;52.078;11.650;2022-08-04T09:40:16;2.90;;;1.80;;
14611;SDS011;7392;52.078;11.650;2022-08-04T09:43:14;5.95;;;1.58;;
14611;SDS011;7392;52.078;11.650;2022-08-04T09:46:14;2.05;;;1.67;;
14611;SDS011;7392;52.078;11.650;2022-08-04T09:48:52;1.95;;;1.45;;
14611;SDS011;7392;52.078;11.650;2022-08-04T09:51:30;1.95;;;1.70;;
14611;SDS011;7392;52.078;11.650;2022-08-04T09:54:26;2.75;;;1.27;;
14611;SDS011;7392;52.078;11.650;2022-08-04T09:57:07;1.83;;;1.65;;
14611;SDS011;7392;52.078;11.650;2022-08-04T09:59:44;1.48;;;1.33;;
14611;SDS011;7392;52.078;11.650;2022-08-04T10:02:24;2.33;;;1.60;;
14611;SDS011;7392;52.078;11.650;2022-08-04T10:04:57;1.50;;;1.40;;
14611;SDS011;7392;52.078;11.650;2022-08-04T10:07:41;1.83;;;1.70;;
14611;SDS011;7392;52.078;11.650;2022-08-04T10:10:39;1.90;;;1.63;;
14611;SDS011;7392;52.078;11.650;2022-08-04T10:13:27;1.75;;;1.65;;
14611;SDS011;7392;52.078;11.650;2022-08-04T10:16:19;2.55;;;1.90;;
14611;SDS011;7392;52.078;11.650;2022-08-04T10:19:05;1.58;;;1.25;;
14611;SDS011;7392;52.078;11.650;2022-08-04T10:21:44;1.50;;;1.40;;
14611;SDS011;7392;52.078;11.650;2022-08-04T10:24:47;1.90;;;1.70;;
14611;SDS011;7392;52.078;11.650;2022-08-04T10:27:23;1.70;;;1.60;;
14611;SDS011;7392;52.078;11.650;2022-08-04T10:30:02;2.60;;;1.70;;
14611;SDS011;7392;52.078;11.650;2022-08-04T10:32:41;1.60;;;1.50;;
14611;SDS011;7392;52.078;11.650;2022-08-04T10:35:13;2.10;;;1.80;;
14611;SDS011;7392;52.078;11.650;2022-08-04T10:37:46;1.98;;;1.52;;
14611;SDS011;7392;52.078;11.650;2022-08-04T10:40:31;2.95;;;1.50;;
14611;SDS011;7392;52.078;11.650;2022-08-04T10:43:04;1.40;;;1.30;;
14611;SDS011;7392;52.078;11.650;2022-08-04T10:45:51;1.55;;;1.38;;
14611;SDS011;7392;52.078;11.650;2022-08-04T10:48:35;1.60;;;1.50;;
14611;SDS011;7392;52.078;11.650;2022-08-04T10:51:14;1.42;;;1.33;;
14611;SDS011;7392;52.078;11.650;2022-08-04T10:53:49;2.55;;;1.50;;
14611;SDS011;7392;52.078;11.650;2022-08-04T10:56:26;1.20;;;1.10;;
14611;SDS011;7392;52.078;11.650;2022-08-04T10:58:59;1.60;;;1.25;;
14611;SDS011;7392;52.078;11.650;2022-08-04T11:01:32;2.00;;;1.67;;
14611;SDS011;7392;52.078;11.650;2022-08-04T11:04:24;1.45;;;1.35;;
14611;SDS011;7392;52.078;11.650;2022-08-04T11:06:57;1.63;;;1.52;;
14611;SDS011;7392;52.078;11.650;2022-08-04T11:09:27;1.42;;;1.33;;
14611;SDS011;7392;52.078;11.650;2022-08-04T11:12:01;1.40;;;1.30;;
14611;SDS011;7392;52.078;11.650;2022-08-04T11:14:35;2.70;;;1.30;;
14611;SDS011;7392;52.078;11.650;2022-08-04T11:17:08;1.30;;;1.20;;
14611;SDS011;7392;52.078;11.650;2022-08-04T11:19:44;1.48;;;1.15;;
14611;SDS011;7392;52.078;11.650;2022-08-04T11:22:22;1.42;;;1.33;;
14611;SDS011;7392;52.078;11.650;2022-08-04T11:24:53;2.45;;;1.60;;
14611;SDS011;7392;52.078;11.650;2022-08-04T11:27:33;1.85;;;1.73;;
14611;SDS011;7392;52.078;11.650;2022-08-04T11:30:07;1.60;;;1.50;;
14611;SDS011;7392;52.078;11.650;2022-08-04T11:32:42;2.72;;;1.73;;
14611;SDS011;7392;52.078;11.650;2022-08-04T11:35:15;1.88;;;1.60;;
14611;SDS011;7392;52.078;11.650;2022-08-04T11:37:53;1.85;;;1.73;;
14611;SDS011;7392;52.078;11.650;2022-08-04T11:40:28;3.28;;;1.40;;
14611;SDS011;7392;52.078;11.650;2022-08-04T11:43:05;1.95;;;1.70;;
14611;SDS011;7392;52.078;11.650;2022-08-04T11:45:41;1.90;;;1.60;;
14611;SDS011;7392;52.078;11.650;2022-08-04T11:48:16;5.65;;;2.22;;
14611;SDS011;7392;52.078;11.650;2022-08-04T11:50:51;1.95;;;1.80;;
14611;SDS011;7392;52.078;11.650;2022-08-04T11:53:21;2.05;;;1.70;;
14611;SDS011;7392;52.078;11.650;2022-08-04T11:56:03;1.48;;;1.38;;
14611;SDS011;7392;52.078;11.650;2022-08-04T11:58:36;1.67;;;1.58;;
14611;SDS011;7392;52.078;11.650;2022-08-04T12:01:07;1.50;;;1.40;;
14611;SDS011;7392;52.078;11.650;2022-08-04T12:03:53;2.85;;;1.65;;
14611;SDS011;7392;52.078;11.650;2022-08-04T12:06:31;3.92;;;1.70;;
14611;SDS011;7392;52.078;11.650;2022-08-04T12:09:21;1.60;;;1.50;;
14611;SDS011;7392;52.078;11.650;2022-08-04T12:12:01;1.63;;;1.52;;
14611;SDS011;7392;52.078;11.650;2022-08-04T12:14:41;1.70;;;1.60;;
14611;SDS011;7392;52.078;11.650;2022-08-04T12:17:20;2.28;;;1.85;;
14611;SDS011;7392;52.078;11.650;2022-08-04T12:20:02;5.07;;;1.90;;
14611;SDS011;7392;52.078;11.650;2022-08-04T12:22:52;2.95;;;1.80;;
14611;SDS011;7392;52.078;11.650;2022-08-04T12:25:25;1.83;;;1.52;;
14611;SDS011;7392;52.078;11.650;2022-08-04T12:27:58;1.50;;;1.40;;
14611;SDS011;7392;52.078;11.650;2022-08-04T12:30:33;2.03;;;1.63;;
14611;SDS011;7392;52.078;11.650;2022-08-04T12:33:23;1.70;;;1.35;;
14611;SDS011;7392;52.078;11.650;2022-08-04T12:36:20;3.22;;;2.17;;
14611;SDS011;7392;52.078;11.650;2022-08-04T12:38:58;3.80;;;1.95;;
14611;SDS011;7392;52.078;11.650;2022-08-04T12:41:31;2.05;;;1.58;;
14611;SDS011;7392;52.078;11.650;2022-08-04T12:44:03;2.45;;;1.60;;
14611;SDS011;7392;52.078;11.650;2022-08-04T12:46:54;1.90;;;1.70;;
14611;SDS011;7392;52.078;11.650;2022-08-04T12:49:43;2.45;;;1.40;;
14611;SDS011;7392;52.078;11.650;2022-08-04T12:52:28;1.50;;;1.40;;
14611;SDS011;7392;52.078;11.650;2022-08-04T12:55:18;2.83;;;1.23;;
14611;SDS011;7392;52.078;11.650;2022-08-04T12:57:49;2.67;;;1.60;;
14611;SDS011;7392;52.078;11.650;2022-08-04T13:00:22;2.13;;;1.77;;
14611;SDS011;7392;52.078;11.650;2022-08-04T13:02:57;4.03;;;1.73;;
14611;SDS011;7392;52.078;11.650;2022-08-04T13:05:38;2.67;;;1.63;;
14611;SDS011;7392;52.078;11.650;2022-08-04T13:08:09;1.50;;;1.33;;
14611;SDS011;7392;52.078;11.650;2022-08-04T13:10:39;2.08;;;1.25;;
14611;SDS011;7392;52.078;11.650;2022-08-04T13:13:15;1.45;;;1.35;;
14611;SDS011;7392;52.078;11.650;2022-08-04T13:15:53;1.77;;;1.15;;
14611;SDS011;7392;52.078;11.650;2022-08-04T13:18:23;1.30;;;1.20;;
14611;SDS011;7392;52.078;11.650;2022-08-04T13:21:06;1.50;;;1.40;;
14611;SDS011;7392;52.078;11.650;2022-08-04T13:23:49;1.80;;;1.08;;
14611;SDS011;7392;52.078;11.650;2022-08-04T13:26:46;2.70;;;1.30;;
14611;SDS011;7392;52.078;11.650;2022-08-04T13:29:21;1.50;;;1.38;;
14611;SDS011;7392;52.078;11.650;2022-08-04T13:32:14;1.95;;;1.45;;
14611;SDS011;7392;52.078;11.650;2022-08-04T13:34:43;1.63;;;1.10;;
14611;SDS011;7392;52.078;11.650;2022-08-04T13:37:15;3.15;;;1.15;;
14611;SDS011;7392;52.078;11.650;2022-08-04T13:39:48;0.93;;;0.90;;
14611;SDS011;7392;52.078;11.650;2022-08-04T13:42:21;1.35;;;1.25;;
14611;SDS011;7392;52.078;11.650;2022-08-04T13:44:53;1.70;;;1.25;;
14611;SDS011;7392;52.078;11.650;2022-08-04T13:47:24;1.40;;;1.30;;
14611;SDS011;7392;52.078;11.650;2022-08-04T13:50:06;2.67;;;1.10;;
14611;SDS011;7392;52.078;11.650;2022-08-04T13:52:38;0.98;;;0.98;;
14611;SDS011;7392;52.078;11.650;2022-08-04T13:55:08;1.20;;;1.10;;
14611;SDS011;7392;52.078;11.650;2022-08-04T13:57:52;1.80;;;1.33;;
14611;SDS011;7392;52.078;11.650;2022-08-04T14:00:23;5.15;;;1.63;;
14611;SDS011;7392;52.078;11.650;2022-08-04T14:02:57;2.58;;;1.20;;
14611;SDS011;7392;52.078;11.650;2022-08-04T14:05:27;1.40;;;1.30;;
14611;SDS011;7392;52.078;11.650;2022-08-04T14:08:18;2.08;;;1.50;;
14611;SDS011;7392;52.078;11.650;2022-08-04T14:10:55;3.13;;;1.40;;
14611;SDS011;7392;52.078;11.650;2022-08-04T14:13:30;1.92;;;1.52;;
14611;SDS011;7392;52.078;11.650;2022-08-04T14:16:14;1.60;;;1.40;;
14611;SDS011;7392;52.078;11.650;2022-08-04T14:18:45;1.80;;;1.13;;
14611;SDS011;7392;52.078;11.650;2022-08-04T14:21:14;1.55;;;1.45;;
14611;SDS011;7392;52.078;11.650;2022-08-04T14:23:44;1.30;;;1.20;;
14611;SDS011;7392;52.078;11.650;2022-08-04T14:26:17;2.10;;;1.40;;
14611;SDS011;7392;52.078;11.650;2022-08-04T14:29:08;1.77;;;1.50;;
14611;SDS011;7392;52.078;11.650;2022-08-04T14:31:58;1.20;;;1.10;;
14611;SDS011;7392;52.078;11.650;2022-08-04T14:34:38;3.17;;;1.25;;
14611;SDS011;7392;52.078;11.650;2022-08-04T14:37:07;1.13;;;1.02;;
14611;SDS011;7392;52.078;11.650;2022-08-04T14:39:45;1.25;;;1.15;;
14611;SDS011;7392;52.078;11.650;2022-08-04T14:42:43;1.30;;;1.20;;
14611;SDS011;7392;52.078;11.650;2022-08-04T14:45:28;1.35;;;1.20;;
14611;SDS011;7392;52.078;11.650;2022-08-04T14:47:58;1.67;;;1.33;;
14611;SDS011;7392;52.078;11.650;2022-08-04T14:50:31;1.30;;;1.20;;
14611;SDS011;7392;52.078;11.650;2022-08-04T14:53:01;2.10;;;1.58;;
14611;SDS011;7392;52.078;11.650;2022-08-04T14:55:30;1.55;;;1.42;;
14611;SDS011;7392;52.078;11.650;2022-08-04T14:58:00;1.92;;;1.27;;
14611;SDS011;7392;52.078;11.650;2022-08-04T15:00:48;1.75;;;1.40;;
14611;SDS011;7392;52.078;11.650;2022-08-04T15:03:17;1.80;;;1.40;;
14611;SDS011;7392;52.078;11.650;2022-08-04T15:05:47;1.60;;;1.50;;
14611;SDS011;7392;52.078;11.650;2022-08-04T15:08:31;2.15;;;1.17;;
14611;SDS011;7392;52.078;11.650;2022-08-04T15:10:59;1.65;;;1.50;;
14611;SDS011;7392;52.078;11.650;2022-08-04T15:13:30;1.48;;;1.35;;
14611;SDS011;7392;52.078;11.650;2022-08-04T15:15:59;1.35;;;1.25;;
14611;SDS011;7392;52.078;11.650;2022-08-04T15:18:34;3.60;;;1.38;;
14611;SDS011;7392;52.078;11.650;2022-08-04T15:21:04;2.70;;;1.27;;
14611;SDS011;7392;52.078;11.650;2022-08-04T15:23:34;1.52;;;1.40;;
14611;SDS011;7392;52.078;11.650;2022-08-04T15:26:05;2.40;;;1.30;;
14611;SDS011;7392;52.078;11.650;2022-08-04T15:28:38;1.23;;;1.13;;
14611;SDS011;7392;52.078;11.650;2022-08-04T15:31:08;1.40;;;1.25;;
14611;SDS011;7392;52.078;11.650;2022-08-04T15:33:57;2.63;;;1.45;;
14611;SDS011;7392;52.078;11.650;2022-08-04T15:36:26;1.70;;;1.60;;
14611;SDS011;7392;52.078;11.650;2022-08-04T15:39:03;1.40;;;1.30;;
14611;SDS011;7392;52.078;11.650;2022-08-04T15:41:42;4.47;;;1.35;;
14611;SDS011;7392;52.078;11.650;2022-08-04T15:44:28;2.42;;;1.48;;
14611;SDS011;7392;52.078;11.650;2022-08-04T15:47:24;1.95;;;1.35;;
14611;SDS011;7392;52.078;11.650;2022-08-04T15:50:03;1.60;;;1.45;;
14611;SDS011;7392;52.078;11.650;2022-08-04T15:55:39;1.25;;;1.15;;
14611;SDS011;7392;52.078;11.650;2022-08-04T15:58:10;1.40;;;1.30;;
14611;SDS011;7392;52.078;11.650;2022-08-04T16:03:52;2.60;;;1.30;;
14611;SDS011;7392;52.078;11.650;2022-08-04T16:09:25;1.73;;;1.30;;
14611;SDS011;7392;52.078;11.650;2022-08-04T16:15:36;1.42;;;1.33;;
14611;SDS011;7392;52.078;11.650;2022-08-04T16:18:08;1.40;;;1.30;;
14611;SDS011;7392;52.078;11.650;2022-08-04T16:20:55;1.52;;;1.42;;
14611;SDS011;7392;52.078;11.650;2022-08-04T16:23:36;1.40;;;1.30;;